createdAt,value
2022-11-26T00:00:29.282Z,98.54
2022-11-26T00:01:29.542Z,98.3
2022-11-26T00:02:29.793Z,98.07
2022-11-26T00:03:29.306Z,98.49
2022-11-26T00:04:29.195Z,97.21
2022-11-26T00:05:29.433Z,97.07
2022-11-26T00:06:29.424Z,95.98
2022-11-26T00:07:29.693Z,95.6
2022-11-26T00:08:29.387Z,95.45
2022-11-26T00:09:29.119Z,95.31
2022-11-26T00:10:29.413Z,95.5
2022-11-26T00:11:29.086Z,95.22
2022-11-26T00:12:29.345Z,95.31
2022-11-26T00:13:29.307Z,95.41
2022-11-26T00:14:29.289Z,95.5
2022-11-26T00:15:29.025Z,95.6
2022-11-26T00:16:29.454Z,95.22
2022-11-26T00:17:29.017Z,95.12
2022-11-26T00:18:29.412Z,95.41
2022-11-26T00:19:28.952Z,95.03
2022-11-26T00:20:29.419Z,95.5
2022-11-26T00:21:29.159Z,95.22
2022-11-26T00:22:29.131Z,95.12
2022-11-26T00:23:29.393Z,95.22
2022-11-26T00:24:29.100Z,95.22
2022-11-26T00:25:29.338Z,95.98
2022-11-26T00:26:29.323Z,96.08
2022-11-26T00:27:29.310Z,96.17
2022-11-26T00:28:29.287Z,97.31
2022-11-26T00:29:29.274Z,97.59
2022-11-26T00:30:29.005Z,99.01
2022-11-26T00:31:29.149Z,99.3
2022-11-26T00:32:28.967Z,99.99
2022-11-26T00:33:29.235Z,99.99
2022-11-26T00:34:29.192Z,99.99
2022-11-26T00:35:29.178Z,99.99
2022-11-26T00:36:28.905Z,99.99
2022-11-26T00:37:29.143Z,99.99
2022-11-26T00:38:29.127Z,99.99
2022-11-26T00:39:29.140Z,99.99
2022-11-26T00:40:29.093Z,99.99
2022-11-26T00:41:29.076Z,99.99
2022-11-26T00:42:28.805Z,99.34
2022-11-26T00:43:28.796Z,98.77
2022-11-26T00:44:28.787Z,96.97
2022-11-26T00:45:28.867Z,95.93
2022-11-26T00:46:29.106Z,95.07
2022-11-26T00:47:28.985Z,94.51
2022-11-26T00:48:28.970Z,94.23
2022-11-26T00:49:28.716Z,93.61
2022-11-26T00:50:28.680Z,93.7
2022-11-26T00:51:28.917Z,93.89
2022-11-26T00:52:28.645Z,93.8
2022-11-26T00:53:28.633Z,93.89
2022-11-26T00:54:28.616Z,93.41
2022-11-26T00:55:28.885Z,93.8
2022-11-26T00:56:28.577Z,93.8
2022-11-26T00:57:28.819Z,93.89
2022-11-26T00:58:28.805Z,93.99
2022-11-26T00:59:28.782Z,93.7
2022-11-26T01:00:28.772Z,94.18
2022-11-26T01:01:28.656Z,94.56
2022-11-26T01:02:28.898Z,94.56
2022-11-26T01:03:28.763Z,95.22
2022-11-26T01:04:28.708Z,95.03
2022-11-26T01:05:28.736Z,95.41
2022-11-26T01:06:28.674Z,96.08
2022-11-26T01:07:28.732Z,95.98
2022-11-26T01:08:28.433Z,96.55
2022-11-26T01:09:28.364Z,96.26
2022-11-26T01:10:28.626Z,96.83
2022-11-26T01:11:28.623Z,96.73
2022-11-26T01:12:28.319Z,96.64
2022-11-26T01:13:28.299Z,97.31
2022-11-26T01:14:28.541Z,97.12
2022-11-26T01:15:28.528Z,97.02
2022-11-26T01:16:28.650Z,97.12
2022-11-26T01:17:28.499Z,97.12
2022-11-26T01:18:28.469Z,97.21
2022-11-26T01:19:28.463Z,97.59
2022-11-26T01:20:28.187Z,97.4
2022-11-26T01:21:28.195Z,97.88
2022-11-26T01:22:28.411Z,97.97
2022-11-26T01:23:28.147Z,98.44
2022-11-26T01:24:28.122Z,98.54
2022-11-26T01:25:28.362Z,98.35
2022-11-26T01:26:28.344Z,98.16
2022-11-26T01:27:28.445Z,98.63
2022-11-26T01:28:28.315Z,98.63
2022-11-26T01:29:28.043Z,98.35
2022-11-26T01:30:28.277Z,98.54
2022-11-26T01:31:28.385Z,98.35
2022-11-26T01:32:31.713Z,98.82
2022-11-26T01:33:28.229Z,98.35
2022-11-26T01:34:28.215Z,98.73
2022-11-26T01:35:27.945Z,98.63
2022-11-26T01:36:28.178Z,98.92
2022-11-26T01:37:28.195Z,98.82
2022-11-26T01:38:28.144Z,98.82
2022-11-26T01:39:28.132Z,98.73
2022-11-26T01:41:28.108Z,99.2
2022-11-26T01:42:28.083Z,99.3
2022-11-26T01:43:28.109Z,99.87
2022-11-26T01:44:27.798Z,99.99
2022-11-26T01:45:28.187Z,99.49
2022-11-26T01:46:28.018Z,99.99
2022-11-26T01:47:28.016Z,99.99
2022-11-26T01:48:27.739Z,99.87
2022-11-26T01:49:27.967Z,99.68
2022-11-26T01:50:27.949Z,99.49
2022-11-26T01:51:27.938Z,99.99
2022-11-26T01:52:27.921Z,99.96
2022-11-26T01:53:27.674Z,99.99
2022-11-26T01:54:27.884Z,99.87
2022-11-26T01:55:27.870Z,99.96
2022-11-26T01:56:27.865Z,99.96
2022-11-26T01:57:27.583Z,99.99
2022-11-26T01:58:27.818Z,99.77
2022-11-26T01:59:27.837Z,99.99
2022-11-26T02:00:27.536Z,99.39
2022-11-26T02:01:27.718Z,99.3
2022-11-26T02:02:27.658Z,99.49
2022-11-26T02:03:27.741Z,99.87
2022-11-26T02:04:27.722Z,99.68
2022-11-26T02:05:27.716Z,99.87
2022-11-26T02:06:27.686Z,99.87
2022-11-26T02:07:27.551Z,99.99
2022-11-26T02:08:27.663Z,99.99
2022-11-26T02:09:27.665Z,99.99
2022-11-26T02:10:27.372Z,99.99
2022-11-26T02:11:27.609Z,99.99
2022-11-26T02:12:27.345Z,99.99
2022-11-26T02:13:27.573Z,99.99
2022-11-26T02:14:27.575Z,99.99
2022-11-26T02:15:27.593Z,99.99
2022-11-26T02:16:27.657Z,99.99
2022-11-26T02:17:27.262Z,99.99
2022-11-26T02:18:27.499Z,99.99
2022-11-26T02:19:27.478Z,99.99
2022-11-26T02:20:27.468Z,99.99
2022-11-26T02:21:27.447Z,99.99
2022-11-26T02:22:27.180Z,99.99
2022-11-26T02:23:27.423Z,99.99
2022-11-26T02:24:27.145Z,99.96
2022-11-26T02:25:27.414Z,99.99
2022-11-26T02:26:27.120Z,99.99
2022-11-26T02:27:27.098Z,99.96
2022-11-26T02:28:27.335Z,99.58
2022-11-26T02:29:27.066Z,99.3
2022-11-26T02:30:27.054Z,99.39
2022-11-26T02:31:27.520Z,99.01
2022-11-26T02:32:27.014Z,99.11
2022-11-26T02:33:26.996Z,98.82
2022-11-26T02:34:26.984Z,99.01
2022-11-26T02:35:26.979Z,99.11
2022-11-26T02:36:26.954Z,98.92
2022-11-26T02:37:26.932Z,99.3
2022-11-26T02:38:26.922Z,99.3
2022-11-26T02:39:27.155Z,99.11
2022-11-26T02:40:27.141Z,99.11
2022-11-26T02:41:27.154Z,99.3
2022-11-26T02:42:26.970Z,98.44
2022-11-26T02:43:27.092Z,98.82
2022-11-26T02:44:26.831Z,98.44
2022-11-26T02:45:27.229Z,98.44
2022-11-26T02:46:27.165Z,97.5
2022-11-26T02:47:27.065Z,96.92
2022-11-26T02:48:26.768Z,96.92
2022-11-26T02:49:26.833Z,96.83
2022-11-26T02:50:26.723Z,96.92
2022-11-26T02:51:30.750Z,96.73
2022-11-26T02:52:26.687Z,96.73
2022-11-26T02:53:26.925Z,96.64
2022-11-26T02:54:26.657Z,97.02
2022-11-26T02:55:26.638Z,96.97
2022-11-26T02:56:26.953Z,97.4
2022-11-26T02:57:26.884Z,97.54
2022-11-26T02:58:26.593Z,97.16
2022-11-26T02:59:26.829Z,97.4
2022-11-26T03:00:26.556Z,97.12
2022-11-26T03:01:26.974Z,96.17
2022-11-26T03:02:26.781Z,96.26
2022-11-26T03:03:26.783Z,95.45
2022-11-26T03:04:26.693Z,95.45
2022-11-26T03:05:26.727Z,94.6
2022-11-26T03:06:26.712Z,94.32
2022-11-26T03:07:26.837Z,93.75
2022-11-26T03:08:26.674Z,93.18
2022-11-26T03:09:26.407Z,92.94
2022-11-26T03:10:26.414Z,93.13
2022-11-26T03:11:26.753Z,92.76
2022-11-26T03:12:26.627Z,92.85
2022-11-26T03:13:26.366Z,92.76
2022-11-26T03:14:26.336Z,93.04
2022-11-26T03:15:26.568Z,92.94
2022-11-26T03:16:26.706Z,92.94
2022-11-26T03:17:26.383Z,92.47
2022-11-26T03:18:26.259Z,92.47
2022-11-26T03:19:26.524Z,92.09
2022-11-26T03:20:26.231Z,92.09
2022-11-26T03:21:26.465Z,92.28
2022-11-26T03:22:26.198Z,92.09
2022-11-26T03:23:26.435Z,91.61
2022-11-26T03:24:26.158Z,91.71
2022-11-26T03:25:26.399Z,91.99
2022-11-26T03:26:26.389Z,92.18
2022-11-26T03:27:26.364Z,91.99
2022-11-26T03:28:26.345Z,92.76
2022-11-26T03:29:26.368Z,93.04
2022-11-26T03:30:26.063Z,93.89
2022-11-26T03:31:26.385Z,93.8
2022-11-26T03:32:26.285Z,94.56
2022-11-26T03:49:58.548Z,92.28
2022-11-26T03:50:58.490Z,91.9
2022-11-26T03:51:58.211Z,92.28
2022-11-26T03:52:58.186Z,92.28
2022-11-26T03:53:58.418Z,93.32
2022-11-26T03:54:58.154Z,92.85
2022-11-26T03:55:58.382Z,92.94
2022-11-26T03:56:58.371Z,93.41
2022-11-26T03:57:58.347Z,93.32
2022-11-26T03:58:58.075Z,93.89
2022-11-26T03:59:58.324Z,93.41
2022-11-26T04:00:58.364Z,92.94
2022-11-26T04:01:58.169Z,93.13
2022-11-26T04:02:58.356Z,92.94
2022-11-26T04:03:58.241Z,92.47
2022-11-26T04:04:57.972Z,91.9
2022-11-26T04:05:58.256Z,92.18
2022-11-26T04:06:57.938Z,91.24
2022-11-26T04:07:58.288Z,92.18
2022-11-26T04:08:58.161Z,91.52
2022-11-26T04:09:58.141Z,91.24
2022-11-26T04:10:58.138Z,90.86
2022-11-26T04:11:58.105Z,91.05
2022-11-26T04:12:58.096Z,91.42
2022-11-26T04:13:58.073Z,91.33
2022-11-26T04:14:58.060Z,91.05
2022-11-26T04:15:58.046Z,91.05
2022-11-26T04:16:58.223Z,91.24
2022-11-26T04:17:57.749Z,90.57
2022-11-26T04:18:57.738Z,90.86
2022-11-26T04:19:57.980Z,90.67
2022-11-26T04:20:57.700Z,91.05
2022-11-26T04:21:57.992Z,91.05
2022-11-26T04:22:57.925Z,90.95
2022-11-26T04:23:57.918Z,91.05
2022-11-26T04:24:57.897Z,91.24
2022-11-26T04:25:57.616Z,90.86
2022-11-26T04:26:57.862Z,91.14
2022-11-26T04:27:57.843Z,91.14
2022-11-26T04:28:57.571Z,90.95
2022-11-26T04:29:57.806Z,90.86
2022-11-26T04:30:57.537Z,90.95
2022-11-26T04:31:57.894Z,91.05
2022-11-26T04:32:57.504Z,91.05
2022-11-26T04:33:57.489Z,90.76
2022-11-26T04:34:57.728Z,91.52
2022-11-26T04:35:57.711Z,91.24
2022-11-26T04:36:57.697Z,90.95
2022-11-26T04:37:57.723Z,91.24
2022-11-26T04:38:57.409Z,91.05
2022-11-26T04:39:57.392Z,91.24
2022-11-26T04:40:57.373Z,91.24
2022-11-26T04:41:57.368Z,91.42
2022-11-26T04:42:57.592Z,92.18
2022-11-26T04:43:57.580Z,91.8
2022-11-26T04:44:57.318Z,91.99
2022-11-26T04:45:57.440Z,91.99
2022-11-26T04:46:57.529Z,91.9
2022-11-26T04:47:57.269Z,91.61
2022-11-26T04:48:57.245Z,91.71
2022-11-26T04:49:57.499Z,91.61
2022-11-26T04:50:57.212Z,91.61
2022-11-26T04:51:57.449Z,91.8
2022-11-26T04:52:57.178Z,91.8
2022-11-26T04:54:02.651Z,92.18
2022-11-26T04:54:57.401Z,92.28
2022-11-26T04:55:57.130Z,92.18
2022-11-26T04:56:57.115Z,92.09
2022-11-26T04:57:57.357Z,92.18
2022-11-26T04:58:57.185Z,91.99
2022-11-26T04:59:57.325Z,92.28
2022-11-26T05:00:57.406Z,92.38
2022-11-26T05:01:57.305Z,92.18
2022-11-26T05:02:57.173Z,92.66
2022-11-26T05:03:57.257Z,92.57
2022-11-26T05:04:57.245Z,92.66
2022-11-26T05:05:56.970Z,92.28
2022-11-26T05:06:57.277Z,92.28
2022-11-26T05:07:57.382Z,92.28
2022-11-26T05:08:57.202Z,92.38
2022-11-26T05:09:57.208Z,92.28
2022-11-26T05:10:57.139Z,91.99
2022-11-26T05:11:56.897Z,92.09
2022-11-26T05:12:57.108Z,92.09
2022-11-26T05:13:56.842Z,92.28
2022-11-26T05:14:56.830Z,92.66
2022-11-26T05:15:56.807Z,92.38
2022-11-26T05:16:57.233Z,92.28
2022-11-26T05:17:57.028Z,91.9
2022-11-26T05:18:56.757Z,91.99
2022-11-26T05:19:56.995Z,92.18
2022-11-26T05:20:56.986Z,92.28
2022-11-26T05:21:56.965Z,92.18
2022-11-26T05:22:56.940Z,92.28
2022-11-26T05:23:56.936Z,92.47
2022-11-26T05:24:56.919Z,92.18
2022-11-26T05:25:56.950Z,91.99
2022-11-26T05:26:59.775Z,91.52
2022-11-26T05:27:56.870Z,92.09
2022-11-26T05:28:56.595Z,91.52
2022-11-26T05:29:56.577Z,91.61
2022-11-26T05:30:56.559Z,91.52
2022-11-26T05:31:57.015Z,91.99
2022-11-26T05:32:56.781Z,91.71
2022-11-26T05:33:56.513Z,91.99
2022-11-26T05:35:02.270Z,91.71
2022-11-26T05:35:56.477Z,91.52
2022-11-26T05:36:56.718Z,91.71
2022-11-26T05:37:56.708Z,91.14
2022-11-26T05:38:56.690Z,91.14
2022-11-26T05:39:56.416Z,91.05
2022-11-26T05:40:56.658Z,91.05
2022-11-26T05:41:56.691Z,90.86
2022-11-26T05:42:56.624Z,90.38
2022-11-26T05:43:56.355Z,90
2022-11-26T05:44:56.337Z,90.38
2022-11-26T05:45:56.751Z,90.19
2022-11-26T05:46:56.303Z,89.81
2022-11-26T05:47:56.540Z,90.19
2022-11-26T05:48:56.535Z,89.91
2022-11-26T05:49:56.251Z,89.62
2022-11-26T05:50:56.797Z,89.91
2022-11-26T05:51:56.481Z,89.91
2022-11-26T05:52:56.202Z,90
2022-11-26T05:53:56.440Z,89.81
2022-11-26T05:54:56.421Z,89.43
2022-11-26T05:55:56.439Z,89.25
2022-11-26T05:57:02.078Z,89.34
2022-11-26T05:57:56.410Z,89.06
2022-11-26T05:58:56.361Z,88.87
2022-11-26T05:59:56.348Z,88.87
2022-11-26T06:00:56.075Z,88.87
2022-11-26T06:01:56.434Z,88.68
2022-11-26T06:02:56.574Z,88.2
2022-11-26T06:03:56.225Z,88.39
2022-11-26T06:04:56.023Z,88.48
2022-11-26T06:05:56.247Z,88.39
2022-11-26T06:06:56.241Z,88.29
2022-11-26T06:07:56.292Z,88.48
2022-11-26T06:08:56.214Z,88.2
2022-11-26T06:09:56.183Z,88.01
2022-11-26T06:10:55.916Z,87.82
2022-11-26T06:11:56.155Z,88.1
2022-11-26T06:12:56.158Z,87.92
2022-11-26T06:13:56.140Z,87.54
2022-11-26T06:14:56.106Z,88.1
2022-11-26T06:15:55.832Z,87.73
2022-11-26T06:16:55.973Z,87.63
2022-11-26T06:17:56.054Z,87.35
2022-11-26T06:18:56.041Z,87.54
2022-11-26T06:19:56.026Z,87.54
2022-11-26T06:20:56.015Z,87.63
2022-11-26T06:21:55.739Z,87.54
2022-11-26T06:22:55.724Z,87.63
2022-11-26T06:24:01.698Z,87.35
2022-11-26T06:24:55.939Z,87.25
2022-11-26T06:25:55.683Z,87.63
2022-11-26T06:26:55.653Z,87.45
2022-11-26T06:27:55.902Z,87.45
2022-11-26T06:28:55.900Z,87.16
2022-11-26T06:29:55.886Z,86.97
2022-11-26T06:30:55.589Z,86.87
2022-11-26T06:31:55.977Z,86.87
2022-11-26T06:32:55.817Z,87.16
2022-11-26T06:33:55.804Z,87.16
2022-11-26T06:34:56.981Z,87.06
2022-11-26T06:35:55.770Z,86.97
2022-11-26T06:36:55.756Z,87.54
2022-11-26T06:37:55.484Z,87.45
2022-11-26T06:38:55.725Z,87.63
2022-11-26T06:39:55.457Z,87.54
2022-11-26T06:40:55.431Z,87.63
2022-11-26T06:41:55.665Z,87.92
2022-11-26T06:42:55.649Z,87.82
2022-11-26T06:43:55.381Z,87.54
2022-11-26T06:45:01.876Z,87.63
2022-11-26T06:45:55.743Z,87.54
2022-11-26T06:46:55.332Z,87.35
2022-11-26T06:47:55.324Z,87.25
2022-11-26T06:48:55.303Z,86.97
2022-11-26T06:49:55.540Z,86.68
2022-11-26T06:50:55.271Z,86.78
2022-11-26T06:51:55.257Z,86.59
2022-11-26T06:52:55.491Z,87.45
2022-11-26T06:53:55.223Z,87.45
2022-11-26T06:54:55.207Z,86.87
2022-11-26T06:55:55.445Z,86.87
2022-11-26T06:56:55.171Z,87.16
2022-11-26T06:57:55.412Z,86.49
2022-11-26T06:58:55.159Z,86.11
2022-11-26T06:59:55.380Z,86.3
2022-11-26T07:00:55.426Z,86.4
2022-11-26T07:01:55.628Z,86.78
2022-11-26T07:02:55.533Z,87.16
2022-11-26T07:03:55.374Z,87.35
2022-11-26T07:04:55.045Z,87.54
2022-11-26T07:05:55.047Z,87.73
2022-11-26T07:06:55.018Z,87.92
2022-11-26T07:07:55.161Z,88.2
2022-11-26T07:08:54.984Z,88.39
2022-11-26T07:09:55.219Z,88.68
2022-11-26T07:10:55.200Z,88.1
2022-11-26T07:11:55.205Z,88.1
2022-11-26T07:12:54.922Z,87.54
2022-11-26T07:13:54.905Z,87.54
2022-11-26T07:14:54.891Z,88.1
2022-11-26T07:15:55.232Z,87.92
2022-11-26T07:16:54.879Z,87.73
2022-11-26T07:17:55.112Z,87.63
2022-11-26T07:19:02.830Z,87.54
2022-11-26T07:19:55.056Z,87.45
2022-11-26T07:20:55.050Z,87.82
2022-11-26T07:21:55.022Z,87.73
2022-11-26T07:22:55.018Z,87.63
2022-11-26T07:23:54.997Z,87.92
2022-11-26T07:24:54.723Z,87.54
2022-11-26T07:25:54.964Z,87.35
2022-11-26T07:26:54.950Z,86.49
2022-11-26T07:27:54.931Z,86.87
2022-11-26T07:28:54.910Z,87.16
2022-11-26T07:29:54.894Z,86.97
2022-11-26T07:30:54.660Z,87.35
2022-11-26T07:31:54.985Z,86.97
2022-11-26T07:32:54.624Z,87.45
2022-11-26T07:33:54.858Z,87.82
2022-11-26T07:34:54.819Z,87.92
2022-11-26T07:35:54.550Z,87.82
2022-11-26T07:37:00.263Z,87.54
2022-11-26T07:37:54.765Z,87.92
2022-11-26T07:38:54.769Z,87.73
2022-11-26T07:39:54.735Z,87.45
2022-11-26T07:40:54.465Z,86.97
2022-11-26T07:41:54.455Z,87.54
2022-11-26T07:42:55.897Z,87.35
2022-11-26T07:43:54.670Z,87.92
2022-11-26T07:44:54.661Z,88.1
2022-11-26T07:45:54.823Z,88.2
2022-11-26T07:46:54.378Z,87.63
2022-11-26T07:47:54.615Z,87.63
2022-11-26T07:48:54.364Z,87.45
2022-11-26T07:49:54.609Z,86.87
2022-11-26T07:50:54.313Z,86.68
2022-11-26T07:51:54.291Z,86.97
2022-11-26T07:52:54.278Z,87.06
2022-11-26T07:53:54.512Z,86.87
2022-11-26T07:54:54.499Z,87.2
2022-11-26T07:55:54.485Z,87.16
2022-11-26T07:56:54.211Z,87.68
2022-11-26T07:57:54.198Z,88.34
2022-11-26T07:58:54.187Z,88.48
2022-11-26T07:59:54.163Z,88.15
2022-11-26T08:00:57.121Z,87.77
2022-11-26T08:01:54.602Z,87.58
2022-11-26T08:02:54.640Z,87.73
2022-11-26T08:03:54.365Z,87.87
2022-11-26T08:04:54.367Z,88.15
2022-11-26T08:05:54.367Z,88.34
2022-11-26T08:06:54.304Z,87.73
2022-11-26T08:07:54.424Z,88.15
2022-11-26T08:08:54.027Z,88.24
2022-11-26T08:09:54.259Z,88.81
2022-11-26T08:10:54.001Z,89.2
2022-11-26T08:11:54.231Z,90.24
2022-11-26T08:12:54.105Z,90.14
2022-11-26T08:13:54.204Z,90.05
2022-11-26T08:14:53.925Z,91
2022-11-26T08:15:54.133Z,91.47
2022-11-26T08:16:54.040Z,92.23
2022-11-26T08:17:54.049Z,93.41
2022-11-26T08:18:54.132Z,94.27
2022-11-26T08:19:54.106Z,94.74
2022-11-26T08:20:53.863Z,95.22
2022-11-26T08:21:54.097Z,95.79
2022-11-26T08:22:53.955Z,95.6
2022-11-26T08:23:54.044Z,95.6
2022-11-26T08:24:54.044Z,95.69
2022-11-26T08:26:30.942Z,95.88
2022-11-26T08:26:53.734Z,95.31
2022-11-26T08:27:54.076Z,95.79
2022-11-26T08:28:53.708Z,95.69
2022-11-26T08:29:53.690Z,95.88
2022-11-26T08:30:53.675Z,95.69
2022-11-26T08:31:53.779Z,95.79
2022-11-26T08:32:53.892Z,95.69
2022-11-26T08:33:53.883Z,95.6
2022-11-26T08:34:53.612Z,95.03
2022-11-26T08:36:08.780Z,95.5
2022-11-26T08:36:53.597Z,95.07
2022-11-26T08:37:53.841Z,95.12
2022-11-26T08:38:53.548Z,95.26
2022-11-26T08:39:53.531Z,94.6
2022-11-26T08:40:53.768Z,94.7
2022-11-26T08:41:55.221Z,94.42
2022-11-26T08:42:53.833Z,94.7
2022-11-26T08:44:09.656Z,94.89
2022-11-26T08:44:53.447Z,94.23
2022-11-26T08:45:53.799Z,94.04
2022-11-26T08:46:53.666Z,93.56
2022-11-26T08:47:53.661Z,93.65
2022-11-26T08:48:53.402Z,93.32
2022-11-26T08:49:53.375Z,92.8
2022-11-26T08:50:53.601Z,91.85
2022-11-26T08:51:53.361Z,92.09
2022-11-26T08:52:53.579Z,92.14
2022-11-26T08:53:53.589Z,92.18
2022-11-26T08:54:53.283Z,92.09
2022-11-26T08:56:02.869Z,91.85
2022-11-26T08:56:53.260Z,92.28
2022-11-26T08:57:53.596Z,92.18
2022-11-26T08:58:53.244Z,91.8
2022-11-26T08:59:53.468Z,91.8
2022-11-26T09:00:53.494Z,91.05
2022-11-26T09:01:53.623Z,90.76
2022-11-26T09:02:53.600Z,91.05
2022-11-26T09:03:53.391Z,91.52
2022-11-26T09:04:53.385Z,90.95
2022-11-26T09:05:53.361Z,90.95
2022-11-26T09:06:53.087Z,90.76
2022-11-26T09:07:53.590Z,90.76
2022-11-26T09:08:53.061Z,90.67
2022-11-26T09:09:53.326Z,90.95
2022-11-26T09:10:53.030Z,90.95
2022-11-26T09:11:53.259Z,91.14
2022-11-26T09:12:53.350Z,90.86
2022-11-26T09:13:52.977Z,90.95
2022-11-26T09:14:53.038Z,92.18
2022-11-26T09:15:53.202Z,91.61
2022-11-26T09:16:53.085Z,91.8
2022-11-26T09:17:53.170Z,91.9
2022-11-26T09:18:53.151Z,91.9
2022-11-26T09:19:53.150Z,92.18
2022-11-26T09:20:59.033Z,92.47
2022-11-26T09:21:53.101Z,93.04
2022-11-26T09:22:53.233Z,92.94
2022-11-26T09:23:52.854Z,93.23
2022-11-26T09:24:52.799Z,92.94
2022-11-26T09:25:53.057Z,93.04
2022-11-26T09:26:52.766Z,92.94
2022-11-26T09:27:52.747Z,93.99
2022-11-26T09:28:52.735Z,94.08
2022-11-26T09:29:52.968Z,94.18
2022-11-26T09:30:52.954Z,94.18
2022-11-26T09:32:27.035Z,94.84
2022-11-26T09:32:52.788Z,94.84
2022-11-26T09:33:52.649Z,94.74
2022-11-26T09:34:52.646Z,94.65
2022-11-26T09:35:52.617Z,95.03
2022-11-26T09:36:52.859Z,95.12
2022-11-26T09:37:54.298Z,95.03
2022-11-26T09:38:52.822Z,95.41
2022-11-26T09:39:52.576Z,95.22
2022-11-26T09:40:52.801Z,94.93
2022-11-26T09:41:52.802Z,95.98
2022-11-26T09:42:52.910Z,96.17
2022-11-26T09:43:55.907Z,97.4
2022-11-26T09:44:52.730Z,97.69
2022-11-26T09:45:52.812Z,98.16
2022-11-26T09:47:14.085Z,98.82
2022-11-26T09:47:52.422Z,98.73
2022-11-26T09:48:52.402Z,99.11
2022-11-26T09:49:52.655Z,99.2
2022-11-26T09:50:52.628Z,99.01
2022-11-26T09:51:52.358Z,99.3
2022-11-26T09:52:52.595Z,99.58
2022-11-26T09:53:52.589Z,99.87
2022-11-26T09:54:52.567Z,99.99
2022-11-26T09:55:52.575Z,99.87
2022-11-26T09:56:52.530Z,99.77
2022-11-26T09:57:52.543Z,99.96
2022-11-26T09:58:52.250Z,99.63
2022-11-26T09:59:52.483Z,99.99
2022-11-26T10:00:52.583Z,99.99
2022-11-26T10:01:52.542Z,99.99
2022-11-26T10:02:52.589Z,99.99
2022-11-26T10:03:52.421Z,99.99
2022-11-26T10:04:52.407Z,99.99
2022-11-26T10:05:52.137Z,99.99
2022-11-26T10:06:52.118Z,99.99
2022-11-26T10:07:52.415Z,99.99
2022-11-26T10:08:52.088Z,99.99
2022-11-26T10:09:52.324Z,99.99
2022-11-26T10:10:52.304Z,99.99
2022-11-26T10:11:52.066Z,99.99
2022-11-26T10:13:20.117Z,99.99
2022-11-26T10:13:52.290Z,99.99
2022-11-26T10:14:51.988Z,99.99
2022-11-26T10:15:52.229Z,99.99
2022-11-26T10:16:52.073Z,99.99
2022-11-26T10:17:51.952Z,99.99
2022-11-26T10:18:51.926Z,99.99
2022-11-26T10:19:51.913Z,99.99
2022-11-26T10:20:52.148Z,99.99
2022-11-26T10:22:07.447Z,99.44
2022-11-26T10:22:59.133Z,99.44
2022-11-26T10:23:51.953Z,99.99
2022-11-26T10:24:52.094Z,99.44
2022-11-26T10:25:51.820Z,99.4
2022-11-26T10:26:51.805Z,99.11
2022-11-26T10:27:52.064Z,99.99
2022-11-26T10:28:52.026Z,99.99
2022-11-26T10:29:52.035Z,99.99
2022-11-26T10:30:51.741Z,99.99
2022-11-26T10:31:51.891Z,99.99
2022-11-26T10:32:51.704Z,99.99
2022-11-26T10:33:51.792Z,99.99
2022-11-26T10:34:51.678Z,99.99
2022-11-26T10:35:51.925Z,99.99
2022-11-26T10:36:51.896Z,99.99
2022-11-26T10:37:51.639Z,99.99
2022-11-26T10:38:51.625Z,99.99
2022-11-26T10:40:00.066Z,99.99
2022-11-26T10:40:51.592Z,99.99
2022-11-26T10:41:51.568Z,99.99
2022-11-26T10:42:51.811Z,99.99
2022-11-26T10:43:51.595Z,99.99
2022-11-26T10:44:51.527Z,99.99
2022-11-26T10:45:51.814Z,99.99
2022-11-26T10:46:51.645Z,99.99
2022-11-26T10:47:51.825Z,99.99
2022-11-26T10:48:52.246Z,99.99
2022-11-26T10:49:51.713Z,99.99
2022-11-26T10:50:51.503Z,99.99
2022-11-26T10:51:51.673Z,99.99
2022-11-26T10:52:51.663Z,99.99
2022-11-26T10:53:51.800Z,99.99
2022-11-26T10:54:51.380Z,99.99
2022-11-26T10:55:51.366Z,99.99
2022-11-26T10:56:51.604Z,99.99
2022-11-26T10:57:51.335Z,99.99
2022-11-26T10:58:51.730Z,99.99
2022-11-26T10:59:51.590Z,99.99
2022-11-26T11:00:51.476Z,99.99
2022-11-26T11:01:57.416Z,99.99
2022-11-26T11:02:51.530Z,99.99
2022-11-26T11:04:21.233Z,99.99
2022-11-26T11:04:51.498Z,99.99
2022-11-26T11:05:51.217Z,99.99
2022-11-26T11:06:51.475Z,99.99
2022-11-26T11:07:51.425Z,99.99
2022-11-26T11:08:52.155Z,99.99
2022-11-26T11:09:52.289Z,99.99
2022-11-26T11:10:52.311Z,99.99
2022-11-26T11:11:52.260Z,99.99
2022-11-26T11:12:52.252Z,99.99
2022-11-26T11:13:52.238Z,99.99
2022-11-26T11:14:52.965Z,99.99
2022-11-26T11:15:51.977Z,99.99
2022-11-26T11:16:52.294Z,99.99
2022-11-26T11:17:52.207Z,99.99
2022-11-26T11:18:51.912Z,99.99
2022-11-26T11:19:52.144Z,99.99
2022-11-26T11:20:52.140Z,99.99
2022-11-26T11:21:52.123Z,99.99
2022-11-26T11:22:56.404Z,99.99
2022-11-26T11:24:10.660Z,99.99
2022-11-26T11:24:51.821Z,99.99
2022-11-26T11:25:52.061Z,99.99
2022-11-26T11:26:52.053Z,99.99
2022-11-26T11:27:52.043Z,99.99
2022-11-26T11:28:51.787Z,99.99
2022-11-26T11:29:51.751Z,99.99
2022-11-26T11:30:51.999Z,99.99
2022-11-26T11:31:51.925Z,99.99
2022-11-26T11:32:51.962Z,99.99
2022-11-26T11:33:51.972Z,99.99
2022-11-26T11:34:51.939Z,99.99
2022-11-26T11:35:51.922Z,99.99
2022-11-26T11:36:51.658Z,99.99
2022-11-26T11:37:51.633Z,99.99
2022-11-26T11:38:52.029Z,99.99
2022-11-26T11:39:51.616Z,99.99
2022-11-26T11:40:51.844Z,99.99
2022-11-26T11:41:51.838Z,99.99
2022-11-26T11:42:51.591Z,99.99
2022-11-26T11:43:51.651Z,99.99
2022-11-26T11:44:51.784Z,99.99
2022-11-26T11:45:55.414Z,99.99
2022-11-26T11:46:51.756Z,99.99
2022-11-26T11:47:51.527Z,99.99
2022-11-26T11:48:51.572Z,99.99
2022-11-26T11:49:51.739Z,99.99
2022-11-26T11:50:51.446Z,99.99
2022-11-26T11:51:51.708Z,99.99
2022-11-26T11:52:51.414Z,99.99
2022-11-26T11:53:51.753Z,99.99
2022-11-26T11:54:51.387Z,99.99
2022-11-26T11:55:51.632Z,99.99
2022-11-26T11:56:51.607Z,99.99
2022-11-26T11:57:51.341Z,99.99
2022-11-26T11:58:51.588Z,99.99
2022-11-26T11:59:51.567Z,99.99
2022-11-26T12:00:51.555Z,99.99
2022-11-26T12:01:51.408Z,99.99
2022-11-26T12:02:51.269Z,99.99
2022-11-26T12:03:51.495Z,99.99
2022-11-26T12:04:51.366Z,99.99
2022-11-26T12:05:51.507Z,99.99
2022-11-26T12:06:51.463Z,99.99
2022-11-26T12:07:52.228Z,99.99
2022-11-26T12:08:52.165Z,99.99
2022-11-26T12:09:52.062Z,99.99
2022-11-26T12:10:52.037Z,99.99
2022-11-26T12:11:52.033Z,99.99
2022-11-26T12:12:52.002Z,99.99
2022-11-26T12:13:51.893Z,99.99
2022-11-26T12:14:51.976Z,99.99
2022-11-26T12:15:51.711Z,99.99
2022-11-26T12:16:51.889Z,99.99
2022-11-26T12:17:51.679Z,99.99
2022-11-26T12:18:51.817Z,99.99
2022-11-26T12:19:51.924Z,99.99
2022-11-26T12:20:51.889Z,99.99
2022-11-26T12:21:51.895Z,99.99
2022-11-26T12:22:51.861Z,99.99
2022-11-26T12:23:51.845Z,99.99
2022-11-26T12:24:51.570Z,99.99
2022-11-26T12:25:51.556Z,99.99
2022-11-26T12:26:51.546Z,99.99
2022-11-26T12:27:51.530Z,99.99
2022-11-26T12:28:54.011Z,99.99
2022-11-26T12:29:51.745Z,99.99
2022-11-26T12:30:51.734Z,99.99
2022-11-26T12:31:51.832Z,99.99
2022-11-26T12:32:51.704Z,99.99
2022-11-26T12:33:52.002Z,99.99
2022-11-26T12:34:51.678Z,99.99
2022-11-26T12:35:51.437Z,99.99
2022-11-26T12:36:51.395Z,99.99
2022-11-26T12:37:51.656Z,99.99
2022-11-26T12:38:51.763Z,99.99
2022-11-26T12:39:56.304Z,99.99
2022-11-26T12:40:51.331Z,99.99
2022-11-26T12:41:51.574Z,99.99
2022-11-26T12:42:51.307Z,99.99
2022-11-26T12:43:51.535Z,99.99
2022-11-26T12:44:51.527Z,99.99
2022-11-26T12:45:51.643Z,99.99
2022-11-26T12:46:51.238Z,99.99
2022-11-26T12:47:51.480Z,99.99
2022-11-26T12:48:51.617Z,99.99
2022-11-26T12:49:51.444Z,99.99
2022-11-26T12:50:51.438Z,99.99
2022-11-26T12:51:51.468Z,99.99
2022-11-26T12:52:51.402Z,99.99
2022-11-26T12:53:51.559Z,99.99
2022-11-26T12:54:51.119Z,99.99
2022-11-26T12:55:51.103Z,99.99
2022-11-26T12:56:51.343Z,99.99
2022-11-26T12:57:51.324Z,99.99
2022-11-26T12:58:51.260Z,99.99
2022-11-26T12:59:51.294Z,99.99
2022-11-26T13:00:51.128Z,99.99
2022-11-26T13:01:51.105Z,99.99
2022-11-26T13:02:51.117Z,99.99
2022-11-26T13:03:59.495Z,99.99
2022-11-26T13:04:51.674Z,99.99
2022-11-26T13:05:54.224Z,99.99
2022-11-26T13:06:51.562Z,99.99
2022-11-26T13:07:51.707Z,99.99
2022-11-26T13:08:51.634Z,99.99
2022-11-26T13:09:51.539Z,99.99
2022-11-26T13:10:51.508Z,99.99
2022-11-26T13:11:51.542Z,99.99
2022-11-26T13:12:51.497Z,99.99